sensor_id;sensor_type;location;lat;lon;timestamp;pressure;altitude;pressure_sealevel;temperature;humidity
43436;BME280;36399;51.444;-2.018;2023-12-29T00:02:16;99820.75;;;8.04;100.00
43436;BME280;36399;51.444;-2.018;2023-12-29T00:04:43;99819.84;;;8.02;100.00
43436;BME280;36399;51.444;-2.018;2023-12-29T00:07:09;99813.66;;;7.94;100.00
43436;BME280;36399;51.444;-2.018;2023-12-29T00:09:35;99822.19;;;7.81;100.00
43436;BME280;36399;51.444;-2.018;2023-12-29T00:12:07;99820.38;;;7.78;100.00
43436;BME280;36399;51.444;-2.018;2023-12-29T00:14:36;99827.25;;;7.72;100.00
43436;BME280;36399;51.444;-2.018;2023-12-29T00:17:03;99837.63;;;7.66;100.00
43436;BME280;36399;51.444;-2.018;2023-12-29T00:19:29;99836.75;;;7.67;100.00
43436;BME280;36399;51.444;-2.018;2023-12-29T00:21:55;99835.94;;;7.69;100.00
43436;BME280;36399;51.444;-2.018;2023-12-29T00:24:21;99830.69;;;7.68;100.00
43436;BME280;36399;51.444;-2.018;2023-12-29T00:26:47;99827.22;;;7.69;100.00
43436;BME280;36399;51.444;-2.018;2023-12-29T00:29:16;99835.91;;;7.68;100.00
43436;BME280;36399;51.444;-2.018;2023-12-29T00:31:41;99842.84;;;7.66;100.00
43436;BME280;36399;51.444;-2.018;2023-12-29T00:34:07;99841.19;;;7.71;100.00
43436;BME280;36399;51.444;-2.018;2023-12-29T00:36:33;99845.63;;;7.78;100.00
43436;BME280;36399;51.444;-2.018;2023-12-29T00:38:59;99848.34;;;7.82;100.00
43436;BME280;36399;51.444;-2.018;2023-12-29T00:41:25;99844.97;;;7.91;100.00
43436;BME280;36399;51.444;-2.018;2023-12-29T00:43:51;99829.31;;;7.94;100.00
43436;BME280;36399;51.444;-2.018;2023-12-29T00:46:19;99828.47;;;7.95;100.00
43436;BME280;36399;51.444;-2.018;2023-12-29T00:48:46;99839.88;;;8.00;100.00
43436;BME280;36399;51.444;-2.018;2023-12-29T00:51:12;99828.53;;;8.01;100.00
43436;BME280;36399;51.444;-2.018;2023-12-29T00:53:38;99820.66;;;7.98;100.00
43436;BME280;36399;51.444;-2.018;2023-12-29T00:56:10;99819.88;;;8.04;100.00
43436;BME280;36399;51.444;-2.018;2023-12-29T00:58:37;99829.56;;;8.12;100.00
43436;BME280;36399;51.444;-2.018;2023-12-29T01:01:03;99827.84;;;8.16;100.00
43436;BME280;36399;51.444;-2.018;2023-12-29T01:03:29;99808.72;;;8.20;100.00
43436;BME280;36399;51.444;-2.018;2023-12-29T01:05:55;99779.06;;;8.16;100.00
43436;BME280;36399;51.444;-2.018;2023-12-29T01:08:21;99796.53;;;8.20;100.00
43436;BME280;36399;51.444;-2.018;2023-12-29T01:10:46;99809.66;;;8.27;100.00
43436;BME280;36399;51.444;-2.018;2023-12-29T01:13:12;99800.06;;;8.26;100.00
43436;BME280;36399;51.444;-2.018;2023-12-29T01:15:38;99810.53;;;8.26;100.00
43436;BME280;36399;51.444;-2.018;2023-12-29T01:18:06;99807.06;;;8.27;100.00
43436;BME280;36399;51.444;-2.018;2023-12-29T01:20:32;99812.19;;;8.17;100.00
43436;BME280;36399;51.444;-2.018;2023-12-29T01:22:58;99813.13;;;8.24;100.00
43436;BME280;36399;51.444;-2.018;2023-12-29T01:25:24;99794.78;;;8.19;100.00
43436;BME280;36399;51.444;-2.018;2023-12-29T01:27:50;99800.09;;;8.27;100.00
43436;BME280;36399;51.444;-2.018;2023-12-29T01:30:16;99786.97;;;8.24;100.00
43436;BME280;36399;51.444;-2.018;2023-12-29T01:32:42;99793.91;;;8.20;100.00
43436;BME280;36399;51.444;-2.018;2023-12-29T01:35:08;99796.56;;;8.23;100.00
43436;BME280;36399;51.444;-2.018;2023-12-29T01:37:34;99784.31;;;8.19;100.00
43436;BME280;36399;51.444;-2.018;2023-12-29T01:40:00;99794.72;;;8.13;100.00
43436;BME280;36399;51.444;-2.018;2023-12-29T01:42:26;99804.16;;;8.02;100.00
43436;BME280;36399;51.444;-2.018;2023-12-29T01:44:53;99804.06;;;7.95;100.00
43436;BME280;36399;51.444;-2.018;2023-12-29T01:47:20;99795.22;;;7.83;100.00
43436;BME280;36399;51.444;-2.018;2023-12-29T01:49:48;99797.06;;;7.90;100.00
43436;BME280;36399;51.444;-2.018;2023-12-29T01:52:16;99793.56;;;7.90;100.00
43436;BME280;36399;51.444;-2.018;2023-12-29T01:54:44;99792.66;;;7.88;100.00
43436;BME280;36399;51.444;-2.018;2023-12-29T01:57:11;99796.19;;;7.90;100.00
43436;BME280;36399;51.444;-2.018;2023-12-29T01:59:38;99797.97;;;7.94;100.00
43436;BME280;36399;51.444;-2.018;2023-12-29T02:02:04;99814.50;;;7.91;100.00
43436;BME280;36399;51.444;-2.018;2023-12-29T02:04:30;99810.97;;;7.89;100.00
43436;BME280;36399;51.444;-2.018;2023-12-29T02:06:56;99811.78;;;7.84;100.00
43436;BME280;36399;51.444;-2.018;2023-12-29T02:09:23;99803.06;;;7.83;100.00
43436;BME280;36399;51.444;-2.018;2023-12-29T02:11:49;99802.09;;;7.80;100.00
43436;BME280;36399;51.444;-2.018;2023-12-29T02:14:16;99811.59;;;7.72;100.00
43436;BME280;36399;51.444;-2.018;2023-12-29T02:21:46;99813.34;;;7.74;100.00
43436;BME280;36399;51.444;-2.018;2023-12-29T02:24:15;99802.97;;;7.79;100.00
43436;BME280;36399;51.444;-2.018;2023-12-29T02:26:44;99818.66;;;7.79;100.00
43436;BME280;36399;51.444;-2.018;2023-12-29T02:29:15;99821.25;;;7.79;100.00
43436;BME280;36399;51.444;-2.018;2023-12-29T02:31:45;99818.75;;;7.85;100.00
43436;BME280;36399;51.444;-2.018;2023-12-29T02:34:17;99816.16;;;7.86;100.00
43436;BME280;36399;51.444;-2.018;2023-12-29T02:36:46;99808.34;;;7.88;100.00
43436;BME280;36399;51.444;-2.018;2023-12-29T02:39:13;99827.50;;;7.87;100.00
43436;BME280;36399;51.444;-2.018;2023-12-29T02:41:39;99814.44;;;7.88;100.00
43436;BME280;36399;51.444;-2.018;2023-12-29T02:44:06;99824.06;;;7.91;100.00
43436;BME280;36399;51.444;-2.018;2023-12-29T02:46:32;99808.41;;;7.94;100.00
43436;BME280;36399;51.444;-2.018;2023-12-29T02:48:58;99812.72;;;7.89;100.00
43436;BME280;36399;51.444;-2.018;2023-12-29T02:51:25;99804.88;;;7.89;100.00
43436;BME280;36399;51.444;-2.018;2023-12-29T02:53:51;99816.22;;;7.91;100.00
43436;BME280;36399;51.444;-2.018;2023-12-29T02:56:17;99806.53;;;7.82;100.00
43436;BME280;36399;51.444;-2.018;2023-12-29T02:58:43;99794.41;;;7.87;100.00
43436;BME280;36399;51.444;-2.018;2023-12-29T03:01:13;99810.09;;;7.89;100.00
43436;BME280;36399;51.444;-2.018;2023-12-29T03:03:39;99804.84;;;7.86;100.00
43436;BME280;36399;51.444;-2.018;2023-12-29T03:06:06;99807.47;;;7.87;100.00
43436;BME280;36399;51.444;-2.018;2023-12-29T03:08:32;99818.75;;;7.85;100.00
43436;BME280;36399;51.444;-2.018;2023-12-29T03:10:58;99813.53;;;7.85;100.00
43436;BME280;36399;51.444;-2.018;2023-12-29T03:13:24;99810.06;;;7.86;100.00
43436;BME280;36399;51.444;-2.018;2023-12-29T03:15:50;99808.25;;;7.82;100.00
43436;BME280;36399;51.444;-2.018;2023-12-29T03:18:16;99813.38;;;7.76;100.00
43436;BME280;36399;51.444;-2.018;2023-12-29T03:20:42;99811.53;;;7.69;100.00
43436;BME280;36399;51.444;-2.018;2023-12-29T03:23:08;99804.53;;;7.65;100.00
43436;BME280;36399;51.444;-2.018;2023-12-29T03:25:34;99801.75;;;7.54;100.00
43436;BME280;36399;51.444;-2.018;2023-12-29T03:28:00;99800.94;;;7.56;100.00
43436;BME280;36399;51.444;-2.018;2023-12-29T03:30:26;99801.78;;;7.55;100.00
43436;BME280;36399;51.444;-2.018;2023-12-29T03:32:52;99780.88;;;7.55;100.00
43436;BME280;36399;51.444;-2.018;2023-12-29T03:35:18;99786.13;;;7.57;100.00
43436;BME280;36399;51.444;-2.018;2023-12-29T03:37:44;99791.34;;;7.57;100.00
43436;BME280;36399;51.444;-2.018;2023-12-29T03:40:10;99790.44;;;7.53;100.00
43436;BME280;36399;51.444;-2.018;2023-12-29T03:42:36;99799.16;;;7.55;100.00
43436;BME280;36399;51.444;-2.018;2023-12-29T03:45:02;99798.31;;;7.56;100.00
43436;BME280;36399;51.444;-2.018;2023-12-29T03:47:28;99797.50;;;7.60;100.00
43436;BME280;36399;51.444;-2.018;2023-12-29T03:49:56;99793.03;;;7.53;100.00
43436;BME280;36399;51.444;-2.018;2023-12-29T03:52:21;99779.22;;;7.62;100.00
43436;BME280;36399;51.444;-2.018;2023-12-29T03:54:47;99787.09;;;7.64;100.00
43436;BME280;36399;51.444;-2.018;2023-12-29T03:57:13;99779.22;;;7.60;100.00
43436;BME280;36399;51.444;-2.018;2023-12-29T03:59:39;99770.47;;;7.57;100.00
43436;BME280;36399;51.444;-2.018;2023-12-29T04:02:05;99786.16;;;7.58;100.00
43436;BME280;36399;51.444;-2.018;2023-12-29T04:04:31;99773.13;;;7.62;100.00
43436;BME280;36399;51.444;-2.018;2023-12-29T04:06:58;99779.22;;;7.62;100.00
43436;BME280;36399;51.444;-2.018;2023-12-29T04:09:24;99782.03;;;7.77;100.00
43436;BME280;36399;51.444;-2.018;2023-12-29T04:11:50;99775.03;;;7.75;100.00
43436;BME280;36399;51.444;-2.018;2023-12-29T04:14:15;99792.44;;;7.73;100.00
43436;BME280;36399;51.444;-2.018;2023-12-29T04:16:41;99795.91;;;7.72;100.00
43436;BME280;36399;51.444;-2.018;2023-12-29T04:19:07;99795.06;;;7.73;100.00
43436;BME280;36399;51.444;-2.018;2023-12-29T04:21:33;99797.66;;;7.73;100.00
43436;BME280;36399;51.444;-2.018;2023-12-29T04:23:59;99800.25;;;7.71;100.00
43436;BME280;36399;51.444;-2.018;2023-12-29T04:26:26;99797.66;;;7.73;100.00
43436;BME280;36399;51.444;-2.018;2023-12-29T04:28:52;99788.97;;;7.74;100.00
43436;BME280;36399;51.444;-2.018;2023-12-29T04:31:17;99789.03;;;7.80;100.00
43436;BME280;36399;51.444;-2.018;2023-12-29T04:33:43;99790.75;;;7.78;100.00
43436;BME280;36399;51.444;-2.018;2023-12-29T04:36:09;99774.97;;;7.70;100.00
43436;BME280;36399;51.444;-2.018;2023-12-29T04:38:35;99785.41;;;7.69;100.00
43436;BME280;36399;51.444;-2.018;2023-12-29T04:41:01;99786.25;;;7.66;100.00
43436;BME280;36399;51.444;-2.018;2023-12-29T04:43:27;99802.78;;;7.65;100.00
43436;BME280;36399;51.444;-2.018;2023-12-29T04:45:53;99793.13;;;7.59;100.00
43436;BME280;36399;51.444;-2.018;2023-12-29T04:48:19;99793.06;;;7.55;100.00
43436;BME280;36399;51.444;-2.018;2023-12-29T04:50:45;99796.56;;;7.55;100.00
43436;BME280;36399;51.444;-2.018;2023-12-29T04:53:11;99792.22;;;7.57;100.00
43436;BME280;36399;51.444;-2.018;2023-12-29T04:55:37;99800.09;;;7.59;100.00
43436;BME280;36399;51.444;-2.018;2023-12-29T04:58:03;99811.38;;;7.56;100.00
43436;BME280;36399;51.444;-2.018;2023-12-29T05:00:29;99809.66;;;7.58;100.00
43436;BME280;36399;51.444;-2.018;2023-12-29T05:02:55;99809.63;;;7.57;100.00
43436;BME280;36399;51.444;-2.018;2023-12-29T05:05:21;99804.41;;;7.55;100.00
43436;BME280;36399;51.444;-2.018;2023-12-29T05:07:47;99801.88;;;7.62;100.00
43436;BME280;36399;51.444;-2.018;2023-12-29T05:10:13;99802.88;;;7.73;100.00
43436;BME280;36399;51.444;-2.018;2023-12-29T05:12:39;99797.66;;;7.71;100.00
43436;BME280;36399;51.444;-2.018;2023-12-29T05:15:05;99807.19;;;7.68;100.00
43436;BME280;36399;51.444;-2.018;2023-12-29T05:17:32;99816.88;;;7.78;100.00
43436;BME280;36399;51.444;-2.018;2023-12-29T05:19:57;99825.69;;;7.83;100.00
43436;BME280;36399;51.444;-2.018;2023-12-29T05:22:23;99831.84;;;7.86;100.00
43436;BME280;36399;51.444;-2.018;2023-12-29T05:24:49;99838.88;;;7.92;100.00
43436;BME280;36399;51.444;-2.018;2023-12-29T05:27:15;99837.78;;;7.78;100.00
43436;BME280;36399;51.444;-2.018;2023-12-29T05:29:41;99838.53;;;7.68;100.00
43436;BME280;36399;51.444;-2.018;2023-12-29T05:32:07;99830.63;;;7.65;100.00
43436;BME280;36399;51.444;-2.018;2023-12-29T05:34:34;99829.69;;;7.59;100.00
43436;BME280;36399;51.444;-2.018;2023-12-29T05:37:00;99840.97;;;7.55;100.00
43436;BME280;36399;51.444;-2.018;2023-12-29T05:39:26;99839.34;;;7.64;100.00
43436;BME280;36399;51.444;-2.018;2023-12-29T05:41:52;99827.09;;;7.59;100.00
43436;BME280;36399;51.444;-2.018;2023-12-29T05:44:18;99841.13;;;7.68;100.00
43436;BME280;36399;51.444;-2.018;2023-12-29T05:46:47;99835.00;;;7.66;100.00
43436;BME280;36399;51.444;-2.018;2023-12-29T05:49:13;99832.44;;;7.69;100.00
43436;BME280;36399;51.444;-2.018;2023-12-29T05:51:39;99849.03;;;7.72;100.00
43436;BME280;36399;51.444;-2.018;2023-12-29T05:54:05;99849.88;;;7.70;100.00
43436;BME280;36399;51.444;-2.018;2023-12-29T05:56:31;99852.47;;;7.70;100.00
43436;BME280;36399;51.444;-2.018;2023-12-29T05:58:57;99838.50;;;7.66;100.00
43436;BME280;36399;51.444;-2.018;2023-12-29T06:01:24;99852.41;;;7.65;100.00
43436;BME280;36399;51.444;-2.018;2023-12-29T06:03:50;99855.03;;;7.65;100.00
43436;BME280;36399;51.444;-2.018;2023-12-29T06:06:16;99851.53;;;7.65;100.00
43436;BME280;36399;51.444;-2.018;2023-12-29T06:08:42;99852.22;;;7.51;100.00
43436;BME280;36399;51.444;-2.018;2023-12-29T06:11:08;99848.53;;;7.39;100.00
43436;BME280;36399;51.444;-2.018;2023-12-29T06:13:34;99849.31;;;7.32;100.00
43436;BME280;36399;51.444;-2.018;2023-12-29T06:16:00;99840.47;;;7.25;100.00
43436;BME280;36399;51.444;-2.018;2023-12-29T06:18:27;99839.50;;;7.18;100.00
43436;BME280;36399;51.444;-2.018;2023-12-29T06:20:53;99843.78;;;7.15;100.00
43436;BME280;36399;51.444;-2.018;2023-12-29T06:23:20;99837.63;;;7.10;100.00
43436;BME280;36399;51.444;-2.018;2023-12-29T06:25:46;99834.00;;;7.02;100.00
43436;BME280;36399;51.444;-2.018;2023-12-29T06:28:13;99839.16;;;6.97;100.00
43436;BME280;36399;51.444;-2.018;2023-12-29T06:30:39;99834.81;;;6.97;100.00
43436;BME280;36399;51.444;-2.018;2023-12-29T06:33:07;99837.41;;;6.97;100.00
43436;BME280;36399;51.444;-2.018;2023-12-29T06:35:33;99824.38;;;6.97;100.00
43436;BME280;36399;51.444;-2.018;2023-12-29T06:37:59;99843.56;;;7.01;100.00
43436;BME280;36399;51.444;-2.018;2023-12-29T06:40:25;99827.72;;;6.90;100.00
43436;BME280;36399;51.444;-2.018;2023-12-29T06:42:51;99828.41;;;6.79;100.00
43436;BME280;36399;51.444;-2.018;2023-12-29T06:45:17;99836.41;;;6.89;100.00
43436;BME280;36399;51.444;-2.018;2023-12-29T06:47:43;99832.94;;;6.90;100.00
43436;BME280;36399;51.444;-2.018;2023-12-29T06:50:09;99839.06;;;6.92;100.00
43436;BME280;36399;51.444;-2.018;2023-12-29T06:52:39;99836.47;;;6.92;100.00
43436;BME280;36399;51.444;-2.018;2023-12-29T06:55:05;99839.03;;;6.91;100.00
43436;BME280;36399;51.444;-2.018;2023-12-29T06:57:31;99832.00;;;6.87;100.00
43436;BME280;36399;51.444;-2.018;2023-12-29T06:59:57;99832.06;;;6.90;100.00
43436;BME280;36399;51.444;-2.018;2023-12-29T07:02:23;99832.84;;;6.84;100.00
43436;BME280;36399;51.444;-2.018;2023-12-29T07:04:49;99836.31;;;6.83;100.00
43436;BME280;36399;51.444;-2.018;2023-12-29T07:07:15;99825.88;;;6.85;100.00
43436;BME280;36399;51.444;-2.018;2023-12-29T07:09:41;99823.97;;;6.76;100.00
43436;BME280;36399;51.444;-2.018;2023-12-29T07:12:08;99822.31;;;6.78;100.00
43436;BME280;36399;51.444;-2.018;2023-12-29T07:14:34;99821.44;;;6.79;100.00
43436;BME280;36399;51.444;-2.018;2023-12-29T07:17:07;99821.59;;;6.88;100.00
43436;BME280;36399;51.444;-2.018;2023-12-29T07:19:33;99828.66;;;6.94;100.00
43436;BME280;36399;51.444;-2.018;2023-12-29T07:22:07;99823.56;;;7.02;100.00
43436;BME280;36399;51.444;-2.018;2023-12-29T07:24:34;99828.88;;;7.08;100.00
43436;BME280;36399;51.444;-2.018;2023-12-29T07:27:01;99824.56;;;7.10;100.00
43436;BME280;36399;51.444;-2.018;2023-12-29T07:29:28;99826.38;;;7.14;100.00
43436;BME280;36399;51.444;-2.018;2023-12-29T07:31:54;99823.84;;;7.20;100.00
43436;BME280;36399;51.444;-2.018;2023-12-29T07:34:20;99815.97;;;7.17;100.00
43436;BME280;36399;51.444;-2.018;2023-12-29T07:36:46;99824.72;;;7.19;100.00
43436;BME280;36399;51.444;-2.018;2023-12-29T07:39:12;99811.66;;;7.19;100.00
43436;BME280;36399;51.444;-2.018;2023-12-29T07:41:42;99816.06;;;7.23;100.00
43436;BME280;36399;51.444;-2.018;2023-12-29T07:44:10;99815.19;;;7.22;100.00
43436;BME280;36399;51.444;-2.018;2023-12-29T07:46:37;99816.97;;;7.25;100.00
43436;BME280;36399;51.444;-2.018;2023-12-29T07:49:03;99811.72;;;7.23;100.00
43436;BME280;36399;51.444;-2.018;2023-12-29T07:51:29;99814.31;;;7.22;100.00
43436;BME280;36399;51.444;-2.018;2023-12-29T07:53:55;99815.13;;;7.18;100.00
43436;BME280;36399;51.444;-2.018;2023-12-29T07:56:21;99816.81;;;7.14;100.00
43436;BME280;36399;51.444;-2.018;2023-12-29T07:58:47;99821.16;;;7.14;100.00
43436;BME280;36399;51.444;-2.018;2023-12-29T08:01:13;99824.72;;;7.19;100.00
43436;BME280;36399;51.444;-2.018;2023-12-29T08:03:39;99824.56;;;7.10;100.00
43436;BME280;36399;51.444;-2.018;2023-12-29T08:06:06;99834.16;;;7.11;100.00
43436;BME280;36399;51.444;-2.018;2023-12-29T08:08:32;99832.34;;;7.07;100.00
43436;BME280;36399;51.444;-2.018;2023-12-29T08:10:58;99828.84;;;7.06;100.00
43436;BME280;36399;51.444;-2.018;2023-12-29T08:13:24;99834.94;;;7.07;100.00
43436;BME280;36399;51.444;-2.018;2023-12-29T08:15:49;99833.22;;;7.07;100.00
43436;BME280;36399;51.444;-2.018;2023-12-29T08:18:15;99827.09;;;7.05;100.00
43436;BME280;36399;51.444;-2.018;2023-12-29T08:20:41;99826.22;;;7.05;100.00
43436;BME280;36399;51.444;-2.018;2023-12-29T08:23:08;99822.72;;;7.03;100.00
43436;BME280;36399;51.444;-2.018;2023-12-29T08:25:34;99818.28;;;6.99;100.00
43436;BME280;36399;51.444;-2.018;2023-12-29T08:28:02;99820.03;;;7.00;100.00
43436;BME280;36399;51.444;-2.018;2023-12-29T08:30:28;99827.88;;;7.00;100.00
43436;BME280;36399;51.444;-2.018;2023-12-29T08:32:54;99828.75;;;7.00;100.00
43436;BME280;36399;51.444;-2.018;2023-12-29T08:35:21;99836.56;;;6.99;100.00
43436;BME280;36399;51.444;-2.018;2023-12-29T08:37:47;99840.16;;;7.07;100.00
43436;BME280;36399;51.444;-2.018;2023-12-29T08:40:13;99833.22;;;7.07;100.00
43436;BME280;36399;51.444;-2.018;2023-12-29T08:42:39;99834.13;;;7.09;100.00
43436;BME280;36399;51.444;-2.018;2023-12-29T08:45:05;99844.59;;;7.11;100.00
43436;BME280;36399;51.444;-2.018;2023-12-29T08:47:31;99848.09;;;7.13;100.00
43436;BME280;36399;51.444;-2.018;2023-12-29T08:49:57;99856.88;;;7.16;100.00
43436;BME280;36399;51.444;-2.018;2023-12-29T08:52:23;99849.06;;;7.18;100.00
43436;BME280;36399;51.444;-2.018;2023-12-29T08:54:49;99852.53;;;7.17;100.00
43436;BME280;36399;51.444;-2.018;2023-12-29T08:57:15;99849.06;;;7.18;100.00
43436;BME280;36399;51.444;-2.018;2023-12-29T08:59:44;99840.31;;;7.16;100.00
43436;BME280;36399;51.444;-2.018;2023-12-29T09:02:10;99848.13;;;7.14;100.00
43436;BME280;36399;51.444;-2.018;2023-12-29T09:04:36;99846.41;;;7.15;100.00
43436;BME280;36399;51.444;-2.018;2023-12-29T09:07:01;99850.72;;;7.13;100.00
43436;BME280;36399;51.444;-2.018;2023-12-29T09:09:30;99841.16;;;7.13;100.00
43436;BME280;36399;51.444;-2.018;2023-12-29T09:11:56;99842.03;;;7.14;100.00
43436;BME280;36399;51.444;-2.018;2023-12-29T09:14:22;99840.28;;;7.14;100.00
43436;BME280;36399;51.444;-2.018;2023-12-29T09:16:47;99847.34;;;7.20;100.00
43436;BME280;36399;51.444;-2.018;2023-12-29T09:19:14;99840.31;;;7.16;100.00
43436;BME280;36399;51.444;-2.018;2023-12-29T09:21:40;99849.06;;;7.18;100.00
43436;BME280;36399;51.444;-2.018;2023-12-29T09:24:06;99835.97;;;7.16;100.00
43436;BME280;36399;51.444;-2.018;2023-12-29T09:26:32;99841.19;;;7.16;100.00
43436;BME280;36399;51.444;-2.018;2023-12-29T09:28:59;99832.47;;;7.14;100.00
43436;BME280;36399;51.444;-2.018;2023-12-29T09:31:25;99833.41;;;7.18;100.00
43436;BME280;36399;51.444;-2.018;2023-12-29T09:33:51;99835.16;;;7.19;100.00
43436;BME280;36399;51.444;-2.018;2023-12-29T09:36:17;99834.25;;;7.17;100.00
43436;BME280;36399;51.444;-2.018;2023-12-29T09:38:43;99836.91;;;7.20;100.00
43436;BME280;36399;51.444;-2.018;2023-12-29T09:41:14;99849.97;;;7.21;100.00
43436;BME280;36399;51.444;-2.018;2023-12-29T09:43:41;99852.56;;;7.20;100.00
43436;BME280;36399;51.444;-2.018;2023-12-29T09:46:08;99848.34;;;7.28;100.00
43436;BME280;36399;51.444;-2.018;2023-12-29T09:48:36;99837.84;;;7.23;100.00
43436;BME280;36399;51.444;-2.018;2023-12-29T09:51:04;99840.50;;;7.28;100.00
43436;BME280;36399;51.444;-2.018;2023-12-29T09:53:34;99850.06;;;7.26;100.00
43436;BME280;36399;51.444;-2.018;2023-12-29T09:56:02;99849.16;;;7.24;100.00
43436;BME280;36399;51.444;-2.018;2023-12-29T09:58:29;99837.81;;;7.22;100.00
43436;BME280;36399;51.444;-2.018;2023-12-29T10:00:55;99834.38;;;7.24;100.00
43436;BME280;36399;51.444;-2.018;2023-12-29T10:03:21;99840.41;;;7.22;100.00
43436;BME280;36399;51.444;-2.018;2023-12-29T10:05:50;99836.03;;;7.19;100.00
43436;BME280;36399;51.444;-2.018;2023-12-29T10:08:17;99832.50;;;7.17;100.00
43436;BME280;36399;51.444;-2.018;2023-12-29T10:10:43;99817.72;;;7.18;100.00
43436;BME280;36399;51.444;-2.018;2023-12-29T10:13:10;99814.16;;;7.13;100.00
43436;BME280;36399;51.444;-2.018;2023-12-29T10:16:03;99824.66;;;7.16;100.00
43436;BME280;36399;51.444;-2.018;2023-12-29T10:18:38;99827.22;;;7.13;100.00
43436;BME280;36399;51.444;-2.018;2023-12-29T10:23:56;99810.63;;;7.08;100.00
43436;BME280;36399;51.444;-2.018;2023-12-29T10:26:24;99815.97;;;7.17;100.00
43436;BME280;36399;51.444;-2.018;2023-12-29T10:28:51;99816.13;;;7.26;100.00
43436;BME280;36399;51.444;-2.018;2023-12-29T10:31:20;99816.19;;;7.29;100.00
43436;BME280;36399;51.444;-2.018;2023-12-29T10:33:46;99797.06;;;7.30;100.00
43436;BME280;36399;51.444;-2.018;2023-12-29T10:36:16;99802.56;;;7.48;100.00
43436;BME280;36399;51.444;-2.018;2023-12-29T10:38:42;99802.44;;;7.41;100.00
43436;BME280;36399;51.444;-2.018;2023-12-29T10:41:18;99812.97;;;7.47;100.00
43436;BME280;36399;51.444;-2.018;2023-12-29T10:43:46;99813.94;;;7.53;100.00
43436;BME280;36399;51.444;-2.018;2023-12-29T10:46:20;99831.47;;;7.60;100.00
43436;BME280;36399;51.444;-2.018;2023-12-29T10:48:46;99822.59;;;7.51;100.00
43436;BME280;36399;51.444;-2.018;2023-12-29T10:51:12;99817.34;;;7.48;100.00
43436;BME280;36399;51.444;-2.018;2023-12-29T10:53:38;99821.72;;;7.50;100.00
43436;BME280;36399;51.444;-2.018;2023-12-29T10:56:26;99808.81;;;7.61;100.00
43436;BME280;36399;51.444;-2.018;2023-12-29T11:01:36;99819.41;;;7.72;100.00
43436;BME280;36399;51.444;-2.018;2023-12-29T11:06:39;99823.19;;;7.90;100.00
43436;BME280;36399;51.444;-2.018;2023-12-29T11:09:05;99843.44;;;8.08;100.00
43436;BME280;36399;51.444;-2.018;2023-12-29T11:11:32;99846.13;;;8.14;100.00
43436;BME280;36399;51.444;-2.018;2023-12-29T11:14:02;99847.00;;;8.15;100.00
43436;BME280;36399;51.444;-2.018;2023-12-29T11:16:29;99844.41;;;8.15;100.00
43436;BME280;36399;51.444;-2.018;2023-12-29T11:18:56;99850.53;;;8.17;100.00
43436;BME280;36399;51.444;-2.018;2023-12-29T11:21:22;99829.91;;;8.37;100.00
43436;BME280;36399;51.444;-2.018;2023-12-29T11:23:51;99854.34;;;8.40;100.00
43436;BME280;36399;51.444;-2.018;2023-12-29T11:26:18;99836.09;;;8.43;100.00
43436;BME280;36399;51.444;-2.018;2023-12-29T11:28:47;99841.44;;;8.54;100.00
43436;BME280;36399;51.444;-2.018;2023-12-29T11:31:17;99853.84;;;8.73;100.00
43436;BME280;36399;51.444;-2.018;2023-12-29T11:33:48;99851.16;;;8.67;100.00
43436;BME280;36399;51.444;-2.018;2023-12-29T11:36:18;99856.47;;;8.76;100.00
43436;BME280;36399;51.444;-2.018;2023-12-29T11:38:58;99862.06;;;9.10;100.00
43436;BME280;36399;51.444;-2.018;2023-12-29T11:44:00;99867.38;;;9.19;100.00
43436;BME280;36399;51.444;-2.018;2023-12-29T11:46:34;99861.94;;;8.98;100.00
43436;BME280;36399;51.444;-2.018;2023-12-29T11:49:04;99866.50;;;9.17;100.00
43436;BME280;36399;51.444;-2.018;2023-12-29T11:51:32;99868.06;;;8.98;100.00
43436;BME280;36399;51.444;-2.018;2023-12-29T11:54:00;99871.81;;;9.29;100.00
43436;BME280;36399;51.444;-2.018;2023-12-29T11:56:37;99863.88;;;9.17;100.00
43436;BME280;36399;51.444;-2.018;2023-12-29T11:59:23;99865.56;;;9.12;100.00
43436;BME280;36399;51.444;-2.018;2023-12-29T12:01:55;99867.00;;;8.82;100.00
43436;BME280;36399;51.444;-2.018;2023-12-29T12:04:40;99878.19;;;8.66;100.00
43436;BME280;36399;51.444;-2.018;2023-12-29T12:12:47;99889.34;;;8.50;100.00
43436;BME280;36399;51.444;-2.018;2023-12-29T12:17:52;99882.88;;;8.27;100.00
43436;BME280;36399;51.444;-2.018;2023-12-29T12:20:18;99874.94;;;8.17;100.00
43436;BME280;36399;51.444;-2.018;2023-12-29T12:22:54;99879.09;;;8.02;100.00
43436;BME280;36399;51.444;-2.018;2023-12-29T12:25:22;99868.59;;;8.00;100.00
43436;BME280;36399;51.444;-2.018;2023-12-29T12:27:51;99870.34;;;8.00;100.00
43436;BME280;36399;51.444;-2.018;2023-12-29T12:30:21;99859.84;;;7.95;100.00
43436;BME280;36399;51.444;-2.018;2023-12-29T12:32:57;99869.31;;;7.87;100.00
43436;BME280;36399;51.444;-2.018;2023-12-29T12:35:23;99880.56;;;7.83;100.00
43436;BME280;36399;51.444;-2.018;2023-12-29T12:38:14;99901.53;;;7.86;100.00
43436;BME280;36399;51.444;-2.018;2023-12-29T12:40:40;99913.03;;;8.00;100.00
43436;BME280;36399;51.444;-2.018;2023-12-29T12:43:06;99919.25;;;8.07;100.00
43436;BME280;36399;51.444;-2.018;2023-12-29T12:45:35;99913.38;;;8.24;100.00
43436;BME280;36399;51.444;-2.018;2023-12-29T12:48:09;99933.47;;;8.29;100.00
43436;BME280;36399;51.444;-2.018;2023-12-29T12:50:43;99937.91;;;8.33;100.00
43436;BME280;36399;51.444;-2.018;2023-12-29T12:53:10;99929.50;;;8.55;100.00
43436;BME280;36399;51.444;-2.018;2023-12-29T12:55:37;99915.94;;;8.85;100.00
43436;BME280;36399;51.444;-2.018;2023-12-29T12:58:03;99909.97;;;9.01;100.00
43436;BME280;36399;51.444;-2.018;2023-12-29T13:00:30;99916.13;;;9.05;100.00
43436;BME280;36399;51.444;-2.018;2023-12-29T13:02:57;99898.66;;;9.04;100.00
43436;BME280;36399;51.444;-2.018;2023-12-29T13:05:23;99892.28;;;8.79;100.00
43436;BME280;36399;51.444;-2.018;2023-12-29T13:07:49;99890.53;;;8.79;100.00
43436;BME280;36399;51.444;-2.018;2023-12-29T13:10:18;99892.13;;;8.65;100.00
43436;BME280;36399;51.444;-2.018;2023-12-29T13:12:52;99880.91;;;8.75;100.00
43436;BME280;36399;51.444;-2.018;2023-12-29T13:15:19;99887.28;;;8.99;100.00